Time;durP1;ratioP1;P1;durP2;ratioP2;P2;SDS_P1;SDS_P2;PMS_P1;PMS_P2;Temp;Humidity;BMP_temperature;BMP_pressure;BME280_temperature;BME280_humidity;BME280_pressure;Samples;Min_cycle;Max_cycle;Signal;HPM_P1;HPM_P2
2021/11/21 00:02:18;;;;;;;15.37;7.93;;;9.20;99.90;;;;;;5075492;28;20449;-68
2021/11/21 00:04:45;;;;;;;25.83;8.93;;;9.20;99.90;;;;;;5066525;28;20433;-69
2021/11/21 00:07:12;;;;;;;19.43;8.40;;;9.10;99.90;;;;;;5068680;28;20485;-69
2021/11/21 00:09:39;;;;;;;23.83;9.90;;;9.20;99.90;;;;;;5063729;28;20470;-70
2021/11/21 00:12:07;;;;;;;16.10;8.57;;;9.10;99.90;;;;;;5065448;28;20473;-72
2021/11/21 00:14:34;;;;;;;18.53;7.37;;;9.00;99.90;;;;;;5070417;28;20482;-68
2021/11/21 00:17:06;;;;;;;11.70;5.20;;;9.00;99.90;;;;;;5071648;28;20945;-70
2021/11/21 00:19:36;;;;;;;7.10;5.47;;;8.90;99.90;;;;;;5078203;28;20491;-70
2021/11/21 00:22:03;;;;;;;20.23;10.63;;;8.90;99.90;;;;;;5074614;28;20467;-68
2021/11/21 00:24:30;;;;;;;15.17;8.57;;;8.80;99.90;;;;;;5065680;28;20541;-68
2021/11/21 00:26:57;;;;;;;14.50;8.67;;;8.80;99.90;;;;;;5067391;28;20453;-68
2021/11/21 00:29:24;;;;;;;18.67;9.40;;;8.90;99.90;;;;;;5069213;28;20463;-68
2021/11/21 00:31:51;;;;;;;22.37;9.60;;;8.90;99.90;;;;;;5066100;28;20442;-71
2021/11/21 00:34:18;;;;;;;12.93;7.10;;;8.90;99.90;;;;;;5068331;28;21014;-67
2021/11/21 00:36:47;;;;;;;9.77;6.03;;;9.00;99.90;;;;;;5064799;28;20556;-68
2021/11/21 00:39:14;;;;;;;6.80;4.63;;;8.90;99.90;;;;;;5066711;28;20473;-69
2021/11/21 00:41:41;;;;;;;13.53;7.10;;;8.80;99.90;;;;;;5066959;28;20465;-68
2021/11/21 00:44:08;;;;;;;15.67;8.47;;;8.70;99.90;;;;;;5068001;28;20449;-69
2021/11/21 00:46:35;;;;;;;15.70;7.60;;;8.80;99.90;;;;;;5065686;28;20898;-70
2021/11/21 00:49:05;;;;;;;23.40;8.87;;;8.70;99.90;;;;;;5073152;28;20486;-68
2021/11/21 00:51:33;;;;;;;16.30;8.77;;;8.80;99.90;;;;;;5070323;28;20555;-67
2021/11/21 00:54:08;;;;;;;17.13;9.00;;;8.80;99.90;;;;;;5067880;28;20489;-70
2021/11/21 00:56:35;;;;;;;19.73;9.87;;;8.70;99.90;;;;;;5064832;28;20933;-67
2021/11/21 00:59:02;;;;;;;19.40;8.83;;;8.80;99.90;;;;;;5070366;28;20539;-68
2021/11/21 01:01:29;;;;;;;18.80;10.20;;;8.80;99.90;;;;;;5071799;28;20520;-68
2021/11/21 01:03:56;;;;;;;14.73;7.67;;;8.70;99.90;;;;;;5065679;28;20535;-71
2021/11/21 01:06:24;;;;;;;16.57;8.13;;;8.80;99.90;;;;;;5068184;28;20861;-69
2021/11/21 01:08:51;;;;;;;21.60;8.10;;;8.70;99.90;;;;;;5057126;28;20826;-69
2021/11/21 01:11:19;;;;;;;18.10;6.93;;;8.70;99.90;;;;;;5068250;28;20536;-68
2021/11/21 01:13:46;;;;;;;19.20;7.63;;;8.70;99.90;;;;;;5073147;28;20462;-67
2021/11/21 01:16:14;;;;;;;14.47;7.60;;;8.70;99.90;;;;;;5072268;28;21402;-68
2021/11/21 01:18:41;;;;;;;22.23;10.10;;;8.70;99.90;;;;;;5068739;28;20478;-68
2021/11/21 01:21:08;;;;;;;21.27;8.37;;;8.80;99.90;;;;;;5075330;28;20524;-67
2021/11/21 01:23:35;;;;;;;23.00;10.50;;;8.80;99.90;;;;;;5068151;28;21465;-68
2021/11/21 01:26:02;;;;;;;15.07;8.10;;;8.80;99.90;;;;;;5066155;28;20633;-69
2021/11/21 01:28:31;;;;;;;16.00;7.40;;;8.80;99.90;;;;;;5067201;28;20488;-70
2021/11/21 01:30:58;;;;;;;25.60;9.67;;;8.70;99.90;;;;;;5069586;28;20472;-71
2021/11/21 01:33:25;;;;;;;15.27;8.10;;;8.70;99.90;;;;;;5068690;28;20585;-71
2021/11/21 01:35:52;;;;;;;16.00;7.40;;;8.80;99.90;;;;;;5069457;28;20492;-69
2021/11/21 01:38:20;;;;;;;23.40;9.37;;;8.90;99.90;;;;;;5071348;28;20452;-70
2021/11/21 01:40:48;;;;;;;24.57;10.33;;;8.80;99.90;;;;;;5079206;28;20450;-72
2021/11/21 01:43:15;;;;;;;27.70;12.13;;;8.70;99.90;;;;;;5068612;28;20490;-69
2021/11/21 01:45:43;;;;;;;37.40;12.63;;;8.70;99.90;;;;;;5086382;28;20437;-71
2021/11/21 01:48:10;;;;;;;17.93;8.73;;;8.70;99.90;;;;;;5073709;28;21084;-70
2021/11/21 01:50:42;;;;;;;24.20;10.10;;;8.70;99.90;;;;;;5074434;28;20542;-68
2021/11/21 01:53:10;;;;;;;23.03;9.13;;;8.70;99.90;;;;;;5068806;28;20956;-69
2021/11/21 01:55:39;;;;;;;23.03;8.70;;;8.80;99.90;;;;;;5065072;28;20517;-69
2021/11/21 01:58:06;;;;;;;23.20;9.00;;;8.80;99.90;;;;;;5069415;28;20569;-68
2021/11/21 02:00:38;;;;;;;20.33;9.30;;;8.80;99.90;;;;;;5067464;28;20562;-68
2021/11/21 02:03:07;;;;;;;21.93;10.80;;;8.70;99.90;;;;;;5062585;28;20471;-68
2021/11/21 02:05:34;;;;;;;26.80;13.90;;;8.70;99.90;;;;;;5068186;28;20446;-71
2021/11/21 02:08:03;;;;;;;19.50;10.27;;;8.70;99.90;;;;;;5069169;28;20543;-69
2021/11/21 02:10:31;;;;;;;17.60;10.10;;;8.70;99.90;;;;;;5072895;28;20458;-69
2021/11/21 02:12:58;;;;;;;29.40;12.00;;;8.70;99.90;;;;;;5056870;28;20591;-72
2021/11/21 02:15:26;;;;;;;16.03;9.60;;;8.50;99.90;;;;;;5070857;28;20568;-72
2021/11/21 02:17:55;;;;;;;9.10;4.27;;;8.60;99.90;;;;;;5068635;28;20437;-71
2021/11/21 02:20:26;;;;;;;21.47;10.23;;;8.60;99.90;;;;;;5073234;28;20514;-68
2021/11/21 02:22:53;;;;;;;19.70;10.80;;;8.70;99.90;;;;;;5075905;28;20530;-70
2021/11/21 02:25:20;;;;;;;31.80;12.83;;;8.70;99.90;;;;;;5073497;28;20417;-69
2021/11/21 02:27:47;;;;;;;18.30;8.27;;;8.60;99.90;;;;;;5067867;28;20506;-71
2021/11/21 02:30:14;;;;;;;26.63;11.20;;;8.70;99.90;;;;;;5073141;28;21006;-71
2021/11/21 02:32:46;;;;;;;26.40;9.03;;;8.60;99.90;;;;;;5067939;28;20461;-69
2021/11/21 02:35:14;;;;;;;16.93;8.50;;;8.70;99.90;;;;;;5070297;28;20528;-68
2021/11/21 02:37:42;;;;;;;23.80;9.70;;;8.70;99.90;;;;;;5064104;28;20527;-68
2021/11/21 02:40:10;;;;;;;14.20;7.27;;;8.70;99.90;;;;;;5072721;28;20885;-70
2021/11/21 02:42:38;;;;;;;26.13;10.10;;;8.60;99.90;;;;;;5077021;28;20490;-67
2021/11/21 02:45:08;;;;;;;21.00;10.07;;;8.50;99.90;;;;;;5078356;28;20538;-68
2021/11/21 02:47:35;;;;;;;25.20;10.30;;;8.60;99.90;;;;;;5065291;28;20486;-71
2021/11/21 02:50:03;;;;;;;15.67;11.17;;;8.60;99.90;;;;;;5063276;28;20705;-68
2021/11/21 02:52:30;;;;;;;26.13;11.27;;;8.60;99.90;;;;;;5062913;28;20579;-69
2021/11/21 02:54:59;;;;;;;25.73;10.40;;;8.60;99.90;;;;;;5072815;28;20460;-68
2021/11/21 02:57:27;;;;;;;25.53;11.10;;;8.60;99.90;;;;;;5075162;28;20441;-67
2021/11/21 02:59:55;;;;;;;18.43;9.03;;;8.70;99.90;;;;;;5070333;28;20551;-69
2021/11/21 03:02:22;;;;;;;18.53;10.20;;;8.70;99.90;;;;;;5064896;28;20459;-68
2021/11/21 03:04:51;;;;;;;9.63;6.37;;;8.60;99.90;;;;;;5070508;28;20461;-68
2021/11/21 03:07:19;;;;;;;20.03;8.70;;;8.60;99.90;;;;;;5072604;28;20542;-70
2021/11/21 03:09:48;;;;;;;19.13;10.23;;;8.70;99.90;;;;;;5068722;28;20536;-69
2021/11/21 03:12:19;;;;;;;16.43;7.80;;;8.50;99.90;;;;;;5067679;28;20512;-67
2021/11/21 03:14:46;;;;;;;9.43;7.93;;;8.50;99.90;;;;;;5067918;28;20452;-69
2021/11/21 03:17:14;;;;;;;21.73;10.90;;;8.60;99.90;;;;;;5063754;28;20528;-67
2021/11/21 03:19:40;;;;;;;23.40;9.37;;;8.70;99.90;;;;;;5065126;28;20500;-69
2021/11/21 03:22:08;;;;;;;18.60;5.97;;;8.70;99.90;;;;;;5076200;28;20416;-70
2021/11/21 03:24:35;;;;;;;16.20;9.20;;;8.70;99.90;;;;;;5078652;28;20753;-69
2021/11/21 03:27:02;;;;;;;20.20;10.10;;;8.70;99.90;;;;;;5071382;28;20525;-67
2021/11/21 03:29:32;;;;;;;20.43;9.20;;;8.70;99.90;;;;;;5081445;28;20489;-71
2021/11/21 03:31:59;;;;;;;7.17;5.00;;;8.70;99.90;;;;;;5057008;28;20449;-68
2021/11/21 03:34:27;;;;;;;17.70;9.60;;;8.60;99.90;;;;;;5061756;28;20428;-71
2021/11/21 03:36:54;;;;;;;20.50;10.13;;;8.60;99.90;;;;;;5065363;28;20473;-69
2021/11/21 03:39:21;;;;;;;24.90;12.00;;;8.60;99.90;;;;;;5064252;28;20449;-67
2021/11/21 03:41:50;;;;;;;25.90;11.60;;;8.70;99.90;;;;;;5070667;28;20555;-70
2021/11/21 03:44:17;;;;;;;21.27;9.50;;;8.70;99.90;;;;;;5064715;28;21099;-70
2021/11/21 03:46:46;;;;;;;17.43;7.70;;;8.80;99.90;;;;;;5068422;28;20458;-66
2021/11/21 03:49:12;;;;;;;19.13;9.00;;;8.80;99.90;;;;;;5064804;28;20593;-68
2021/11/21 03:51:40;;;;;;;15.27;8.80;;;8.80;99.90;;;;;;5067162;28;20493;-69
2021/11/21 03:54:09;;;;;;;25.20;12.53;;;8.80;99.90;;;;;;5070032;28;20486;-68
2021/11/21 03:56:36;;;;;;;24.00;10.47;;;8.70;99.90;;;;;;5060236;28;20624;-67
2021/11/21 03:59:04;;;;;;;21.43;10.97;;;8.80;99.90;;;;;;5059525;28;20965;-70
2021/11/21 04:01:32;;;;;;;21.27;9.57;;;8.80;99.90;;;;;;5061660;28;20466;-69
2021/11/21 04:04:00;;;;;;;15.23;9.97;;;8.90;99.90;;;;;;5053100;28;20478;-69
2021/11/21 04:06:27;;;;;;;18.07;9.53;;;8.80;99.90;;;;;;5072571;28;20424;-67
2021/11/21 04:08:54;;;;;;;13.37;7.67;;;8.70;99.90;;;;;;5067258;28;21018;-68
2021/11/21 04:11:21;;;;;;;27.87;8.43;;;8.70;99.90;;;;;;5058747;28;20554;-72
2021/11/21 04:13:48;;;;;;;10.70;6.67;;;8.70;99.90;;;;;;5065816;28;20778;-69
2021/11/21 04:16:15;;;;;;;14.07;7.03;;;8.70;99.90;;;;;;5061204;28;20556;-69
2021/11/21 04:18:43;;;;;;;16.73;8.97;;;8.70;99.90;;;;;;5067689;28;20444;-70
2021/11/21 04:21:11;;;;;;;17.57;7.30;;;8.70;99.90;;;;;;5058811;28;22269;-69
2021/11/21 04:23:38;;;;;;;20.60;8.10;;;8.70;99.90;;;;;;5064528;28;20444;-70
2021/11/21 04:26:05;;;;;;;14.93;6.13;;;8.70;99.90;;;;;;5063708;28;21907;-68
2021/11/21 04:28:32;;;;;;;18.33;8.67;;;8.70;99.90;;;;;;5056219;28;20448;-68
2021/11/21 04:30:59;;;;;;;18.23;9.27;;;8.80;99.90;;;;;;5055633;28;21467;-68
2021/11/21 04:33:26;;;;;;;15.03;6.80;;;8.80;99.90;;;;;;5055715;28;20437;-68
2021/11/21 04:35:54;;;;;;;15.17;9.93;;;8.70;99.90;;;;;;5060823;28;21301;-69
2021/11/21 04:38:24;;;;;;;21.03;10.07;;;8.70;99.90;;;;;;5058898;28;20451;-70
2021/11/21 04:40:54;;;;;;;22.43;6.90;;;8.70;99.90;;;;;;5062711;28;20453;-68
2021/11/21 04:43:21;;;;;;;13.37;6.40;;;8.70;99.90;;;;;;5053409;28;20460;-69
2021/11/21 04:45:48;;;;;;;11.40;5.93;;;8.70;99.90;;;;;;5062904;28;20433;-71
2021/11/21 04:48:15;;;;;;;16.97;8.97;;;8.70;99.90;;;;;;5068866;28;20805;-66
2021/11/21 04:50:43;;;;;;;16.67;9.63;;;8.60;99.90;;;;;;5073603;28;20436;-68
2021/11/21 04:53:10;;;;;;;16.17;8.47;;;8.80;99.90;;;;;;5058811;28;20462;-68
2021/11/21 04:55:39;;;;;;;20.70;9.67;;;8.60;99.90;;;;;;5065980;28;20488;-68
2021/11/21 04:58:06;;;;;;;18.90;8.77;;;8.70;99.90;;;;;;5064088;28;20464;-69
2021/11/21 05:00:33;;;;;;;17.60;8.07;;;8.70;99.90;;;;;;5064408;28;20524;-69
2021/11/21 05:03:00;;;;;;;17.90;9.10;;;8.60;99.90;;;;;;5059475;28;21082;-68
2021/11/21 05:05:27;;;;;;;11.50;7.27;;;8.70;99.90;;;;;;5061964;28;20467;-70
2021/11/21 05:07:54;;;;;;;15.60;8.10;;;8.60;99.90;;;;;;5058770;28;20957;-68
2021/11/21 05:10:22;;;;;;;19.70;6.30;;;8.50;99.90;;;;;;5066137;28;20876;-71
2021/11/21 05:12:50;;;;;;;26.97;11.90;;;8.60;99.90;;;;;;5064639;28;20443;-67
2021/11/21 05:15:20;;;;;;;23.23;10.90;;;8.60;99.90;;;;;;5062598;28;20820;-69
2021/11/21 05:17:49;;;;;;;23.30;9.57;;;8.60;99.90;;;;;;5068095;28;20444;-68
2021/11/21 05:20:17;;;;;;;19.17;11.17;;;8.70;99.90;;;;;;5064499;28;20425;-69
2021/11/21 05:22:46;;;;;;;18.57;9.30;;;8.80;99.90;;;;;;5058884;28;20508;-68
2021/11/21 05:25:13;;;;;;;21.67;9.87;;;8.80;99.90;;;;;;5058098;28;20560;-70
2021/11/21 05:27:43;;;;;;;18.07;9.50;;;8.80;99.90;;;;;;5052946;28;20449;-69
2021/11/21 05:30:13;;;;;;;26.77;10.40;;;8.70;99.90;;;;;;5058960;28;20981;-70
2021/11/21 05:32:40;;;;;;;26.63;8.20;;;8.80;99.90;;;;;;5062782;28;20432;-68
2021/11/21 05:35:08;;;;;;;19.37;10.10;;;8.80;99.90;;;;;;5060475;28;20468;-68
2021/11/21 05:37:36;;;;;;;23.37;10.43;;;8.80;99.90;;;;;;5061048;28;20813;-71
2021/11/21 05:40:04;;;;;;;22.70;12.20;;;8.80;99.90;;;;;;5060595;28;20539;-70
2021/11/21 05:42:31;;;;;;;19.77;12.13;;;8.90;99.90;;;;;;5063118;28;20489;-69
2021/11/21 05:44:58;;;;;;;21.83;11.07;;;8.90;99.90;;;;;;5065512;28;20441;-70
2021/11/21 05:47:26;;;;;;;17.43;7.93;;;8.90;99.90;;;;;;5073364;28;20461;-69
2021/11/21 05:49:54;;;;;;;26.90;10.77;;;8.90;99.90;;;;;;5067744;28;20448;-68
2021/11/21 05:52:22;;;;;;;28.13;11.10;;;8.90;99.90;;;;;;5050009;28;20432;-70
2021/11/21 05:54:50;;;;;;;23.97;10.30;;;8.90;99.90;;;;;;5057471;28;20457;-68
2021/11/21 05:57:17;;;;;;;18.40;8.93;;;9.00;99.90;;;;;;5056450;28;21097;-69
2021/11/21 05:59:45;;;;;;;24.93;9.40;;;9.00;99.90;;;;;;5064800;28;20569;-70
2021/11/21 06:02:12;;;;;;;13.63;6.13;;;9.10;99.90;;;;;;5063958;28;20473;-68
2021/11/21 06:04:40;;;;;;;22.70;9.33;;;9.00;99.90;;;;;;5065423;28;20443;-69
2021/11/21 06:07:10;;;;;;;21.50;10.90;;;9.00;99.90;;;;;;5065487;28;20437;-68
2021/11/21 06:09:37;;;;;;;27.97;11.63;;;9.00;99.90;;;;;;5063617;28;20456;-69
2021/11/21 06:12:05;;;;;;;25.67;11.50;;;9.00;99.90;;;;;;5071050;28;20447;-70
2021/11/21 06:14:32;;;;;;;20.27;9.63;;;8.90;99.90;;;;;;5056492;28;20561;-70
2021/11/21 06:16:59;;;;;;;18.73;9.67;;;8.90;99.90;;;;;;5058544;28;20559;-68
2021/11/21 06:19:26;;;;;;;21.53;11.07;;;8.90;99.90;;;;;;5050595;28;20457;-69
2021/11/21 06:21:55;;;;;;;24.13;10.30;;;8.80;99.90;;;;;;5055622;28;20579;-67
2021/11/21 06:24:22;;;;;;;26.97;10.77;;;8.80;99.90;;;;;;5069177;28;20482;-69
2021/11/21 06:26:49;;;;;;;17.27;8.07;;;8.80;99.90;;;;;;5063813;28;20513;-66
2021/11/21 06:29:17;;;;;;;16.77;7.90;;;8.70;99.90;;;;;;5061154;28;20494;-68
2021/11/21 06:31:45;;;;;;;24.83;10.63;;;8.70;99.90;;;;;;5060058;28;20445;-67
2021/11/21 06:34:12;;;;;;;16.80;8.30;;;8.80;99.90;;;;;;5057727;28;20469;-70
2021/11/21 06:36:39;;;;;;;11.30;5.93;;;8.70;99.90;;;;;;5061458;28;20465;-68
2021/11/21 06:39:10;;;;;;;20.90;9.57;;;8.70;99.90;;;;;;5059401;28;20482;-71
2021/11/21 06:41:38;;;;;;;26.57;11.97;;;8.70;99.90;;;;;;5046802;28;20456;-70
2021/11/21 06:44:06;;;;;;;30.00;14.10;;;8.80;99.90;;;;;;5062427;28;20440;-68
2021/11/21 06:46:33;;;;;;;22.10;11.73;;;8.70;99.90;;;;;;5075211;28;20481;-67
2021/11/21 06:49:00;;;;;;;26.00;11.33;;;8.80;99.90;;;;;;5069130;28;20528;-67
2021/11/21 06:51:27;;;;;;;25.37;11.77;;;8.90;99.90;;;;;;5053569;28;20939;-67
2021/11/21 06:53:55;;;;;;;30.07;12.50;;;8.70;99.90;;;;;;5063410;28;20514;-69
2021/11/21 06:56:23;;;;;;;23.17;10.00;;;8.70;99.90;;;;;;5059108;28;20452;-69
2021/11/21 06:58:51;;;;;;;18.70;7.17;;;8.70;99.90;;;;;;5061606;28;20480;-69
2021/11/21 07:01:18;;;;;;;18.80;8.47;;;8.70;99.90;;;;;;5063072;28;20451;-69
2021/11/21 07:03:45;;;;;;;31.70;13.57;;;8.70;99.90;;;;;;5062514;28;20559;-67
2021/11/21 07:06:31;;;;;;;15.43;9.20;;;8.80;99.90;;;;;;5063187;28;20428;-68
2021/11/21 07:08:58;;;;;;;22.07;11.57;;;8.80;99.90;;;;;;5060396;28;20485;-68
2021/11/21 07:11:26;;;;;;;18.77;9.50;;;8.80;99.90;;;;;;5059385;28;20561;-68
2021/11/21 07:13:54;;;;;;;9.13;4.50;;;8.70;99.90;;;;;;5061547;28;20483;-68
2021/11/21 07:16:21;;;;;;;15.87;9.00;;;8.80;99.90;;;;;;5057436;28;20615;-70
2021/11/21 07:18:48;;;;;;;15.57;6.10;;;8.80;99.90;;;;;;5060689;28;20583;-69
2021/11/21 07:21:15;;;;;;;13.87;8.50;;;8.70;99.90;;;;;;5059446;28;20437;-70
2021/11/21 07:23:42;;;;;;;13.60;8.77;;;8.80;99.90;;;;;;5060237;28;20465;-68
2021/11/21 07:26:09;;;;;;;16.77;7.83;;;8.90;99.90;;;;;;5066011;28;20450;-68
2021/11/21 07:28:37;;;;;;;19.70;8.87;;;8.90;99.90;;;;;;5055196;28;20459;-69
2021/11/21 07:31:05;;;;;;;4.77;3.10;;;8.80;99.90;;;;;;5050395;28;20613;-72
2021/11/21 07:33:32;;;;;;;14.20;6.80;;;8.80;99.90;;;;;;5057554;28;20462;-69
2021/11/21 07:35:59;;;;;;;12.93;6.57;;;8.70;99.90;;;;;;5062279;28;20493;-70
2021/11/21 07:38:26;;;;;;;18.40;7.80;;;8.80;99.90;;;;;;5065908;28;20485;-69
2021/11/21 07:40:54;;;;;;;23.83;8.60;;;8.80;99.90;;;;;;5059951;28;20512;-70
2021/11/21 07:43:22;;;;;;;19.17;8.03;;;8.90;99.90;;;;;;5060581;28;20457;-67
2021/11/21 07:45:52;;;;;;;19.00;10.40;;;8.90;99.90;;;;;;5063710;28;21009;-68
2021/11/21 07:48:19;;;;;;;19.23;8.50;;;9.00;99.90;;;;;;5061192;28;20470;-68
2021/11/21 07:50:46;;;;;;;17.87;10.70;;;9.00;99.90;;;;;;5050018;28;20465;-69
2021/11/21 07:53:13;;;;;;;14.53;6.10;;;9.10;99.90;;;;;;5059445;28;20516;-68
2021/11/21 07:55:40;;;;;;;14.50;7.77;;;9.10;99.90;;;;;;5066735;28;21218;-69
2021/11/21 07:58:07;;;;;;;14.80;7.53;;;9.10;99.90;;;;;;5050008;28;20470;-68
2021/11/21 08:00:34;;;;;;;11.93;7.40;;;9.10;99.90;;;;;;5054041;28;20450;-67
2021/11/21 08:03:02;;;;;;;16.33;7.30;;;9.10;99.90;;;;;;5056830;28;20461;-69
2021/11/21 08:05:29;;;;;;;19.07;7.80;;;9.00;99.90;;;;;;5058817;28;20466;-69
2021/11/21 08:07:56;;;;;;;14.47;7.00;;;9.10;99.90;;;;;;5066899;28;21029;-70
2021/11/21 08:10:23;;;;;;;16.50;7.20;;;9.10;99.90;;;;;;5049322;28;20440;-69
2021/11/21 08:12:50;;;;;;;17.80;8.10;;;9.20;99.90;;;;;;5069751;28;20436;-71
2021/11/21 08:15:17;;;;;;;18.10;7.40;;;9.30;99.90;;;;;;5062897;28;20939;-68
2021/11/21 08:17:44;;;;;;;12.40;7.00;;;9.20;99.90;;;;;;5057122;28;20482;-68
2021/11/21 08:20:13;;;;;;;16.30;6.27;;;9.20;99.90;;;;;;5068732;28;20448;-68
2021/11/21 08:22:41;;;;;;;15.00;6.50;;;9.20;99.90;;;;;;5063464;28;22230;-68
2021/11/21 08:25:09;;;;;;;19.57;7.20;;;9.30;99.90;;;;;;5064841;28;20461;-70
2021/11/21 08:27:37;;;;;;;19.40;8.50;;;9.20;99.90;;;;;;5066153;28;20447;-68
2021/11/21 08:30:06;;;;;;;19.33;8.27;;;9.30;99.90;;;;;;5067631;28;20468;-70
2021/11/21 08:32:34;;;;;;;23.37;7.80;;;9.30;99.90;;;;;;5058467;28;20520;-68
2021/11/21 08:35:01;;;;;;;18.67;9.83;;;9.30;99.90;;;;;;5057387;28;20593;-69
2021/11/21 08:37:29;;;;;;;15.23;8.23;;;9.30;99.90;;;;;;5057184;28;20515;-68
2021/11/21 08:39:56;;;;;;;18.07;8.73;;;9.50;99.90;;;;;;5058466;28;20459;-68
2021/11/21 08:42:23;;;;;;;15.30;7.13;;;9.60;99.90;;;;;;5065791;28;20520;-67
2021/11/21 08:44:50;;;;;;;20.53;7.87;;;9.60;99.90;;;;;;5054398;28;21418;-69
2021/11/21 08:47:17;;;;;;;12.20;7.13;;;9.60;99.90;;;;;;5066704;28;20552;-67
2021/11/21 08:49:44;;;;;;;15.27;8.13;;;9.70;99.90;;;;;;5071113;28;20535;-67
2021/11/21 08:52:11;;;;;;;11.97;6.23;;;9.60;99.90;;;;;;5065257;28;20554;-68
2021/11/21 08:54:41;;;;;;;12.47;6.80;;;9.70;99.90;;;;;;5077415;28;20819;-70
2021/11/21 08:57:08;;;;;;;13.53;6.67;;;9.60;99.90;;;;;;5072461;28;21565;-69
2021/11/21 08:59:36;;;;;;;12.10;9.20;;;9.60;99.90;;;;;;5082876;28;20470;-71
2021/11/21 09:02:02;;;;;;;9.97;4.63;;;9.70;99.90;;;;;;5082323;28;20462;-70
2021/11/21 09:04:30;;;;;;;18.47;6.70;;;9.90;99.90;;;;;;5078911;28;20752;-67
2021/11/21 09:06:57;;;;;;;12.37;6.77;;;9.90;99.90;;;;;;5074506;28;20926;-68
2021/11/21 09:09:24;;;;;;;14.20;7.93;;;10.00;99.90;;;;;;5065269;28;20480;-70
2021/11/21 09:11:52;;;;;;;13.13;7.90;;;10.00;99.90;;;;;;5073369;28;20439;-71
2021/11/21 09:14:19;;;;;;;10.63;6.20;;;9.90;99.90;;;;;;5070229;28;20466;-68
2021/11/21 09:16:46;;;;;;;11.57;6.60;;;9.80;99.90;;;;;;5053447;28;20535;-70
2021/11/21 09:19:14;;;;;;;17.13;9.50;;;9.80;99.90;;;;;;5069274;28;20445;-68
2021/11/21 09:21:42;;;;;;;15.83;8.60;;;9.80;99.90;;;;;;5074789;28;20489;-70
2021/11/21 09:24:09;;;;;;;17.20;7.80;;;9.90;99.90;;;;;;5071258;28;20480;-69
2021/11/21 09:26:36;;;;;;;10.53;6.43;;;10.10;99.90;;;;;;5066005;28;20433;-68
2021/11/21 09:29:05;;;;;;;14.80;7.50;;;10.20;99.90;;;;;;5066650;28;20574;-67
2021/11/21 09:31:32;;;;;;;14.70;6.70;;;10.20;99.90;;;;;;5063135;28;20458;-66
2021/11/21 09:33:59;;;;;;;20.20;8.00;;;10.00;99.90;;;;;;5066738;28;20477;-69
2021/11/21 09:36:27;;;;;;;13.57;6.97;;;10.10;99.90;;;;;;5073227;28;20518;-68
2021/11/21 09:38:54;;;;;;;15.67;7.63;;;10.10;99.90;;;;;;5076464;28;20523;-68
2021/11/21 09:41:21;;;;;;;16.10;8.53;;;10.10;99.90;;;;;;5070646;28;20439;-69
2021/11/21 09:43:48;;;;;;;15.53;8.37;;;10.20;99.90;;;;;;5068885;28;20462;-68
2021/11/21 09:46:17;;;;;;;14.40;7.47;;;10.20;99.90;;;;;;5068120;28;21007;-69
2021/11/21 09:48:44;;;;;;;16.10;6.00;;;10.30;99.90;;;;;;5065981;28;20489;-67
2021/11/21 09:51:11;;;;;;;15.50;6.67;;;10.30;99.90;;;;;;5065602;28;21040;-68
2021/11/21 09:53:39;;;;;;;9.67;6.37;;;10.20;99.90;;;;;;5052325;28;20457;-69
2021/11/21 09:56:06;;;;;;;15.00;7.00;;;10.30;99.90;;;;;;5069487;28;20942;-70
2021/11/21 09:58:33;;;;;;;11.57;5.63;;;10.60;99.90;;;;;;5065195;28;20494;-69
2021/11/21 10:01:00;;;;;;;10.87;5.10;;;10.60;99.90;;;;;;5066505;28;20433;-68
2021/11/21 10:03:29;;;;;;;15.17;6.93;;;10.60;99.90;;;;;;5058828;28;20461;-70
2021/11/21 10:06:05;;;;;;;10.03;5.80;;;10.40;99.90;;;;;;5069279;28;20462;-70
2021/11/21 10:08:33;;;;;;;17.10;5.77;;;10.40;99.90;;;;;;5066488;28;20485;-72
2021/11/21 10:11:04;;;;;;;15.00;8.07;;;10.30;99.90;;;;;;5063038;28;20465;-68
2021/11/21 10:13:35;;;;;;;13.83;6.43;;;10.60;99.90;;;;;;5061098;28;20488;-70
2021/11/21 10:16:21;;;;;;;9.53;6.27;;;10.70;99.90;;;;;;5070496;28;20438;-69
2021/11/21 10:18:52;;;;;;;11.30;5.90;;;10.50;99.90;;;;;;5077264;28;20460;-68
2021/11/21 10:21:20;;;;;;;8.90;4.33;;;10.40;99.90;;;;;;5068030;28;20537;-70
2021/11/21 10:23:47;;;;;;;15.37;6.33;;;10.50;99.90;;;;;;5069480;28;20618;-69
2021/11/21 10:26:21;;;;;;;10.00;4.93;;;10.50;99.90;;;;;;5065672;28;20501;-70
2021/11/21 10:28:48;;;;;;;12.63;5.70;;;10.30;99.90;;;;;;5069420;28;20560;-70
2021/11/21 10:31:17;;;;;;;6.77;5.10;;;10.20;99.90;;;;;;5069267;28;20444;-70
2021/11/21 10:33:49;;;;;;;13.70;6.37;;;10.30;99.90;;;;;;5062642;28;20561;-69
2021/11/21 10:36:20;;;;;;;8.53;5.80;;;10.30;99.90;;;;;;5071095;28;20538;-69
2021/11/21 10:38:50;;;;;;;9.70;4.10;;;10.40;99.90;;;;;;5048126;28;20578;-69
2021/11/21 10:41:24;;;;;;;10.27;6.03;;;10.40;99.90;;;;;;5066972;28;20449;-69
2021/11/21 10:43:56;;;;;;;7.50;4.30;;;10.40;99.90;;;;;;5045996;28;20462;-70
2021/11/21 10:46:30;;;;;;;14.40;6.27;;;10.50;99.90;;;;;;5063320;28;20888;-70
2021/11/21 10:49:36;;;;;;;11.73;4.63;;;10.50;99.90;;;;;;5066537;28;20588;-68
2021/11/21 10:52:14;;;;;;;11.80;4.77;;;10.50;99.90;;;;;;5054161;28;20435;-70
2021/11/21 10:54:45;;;;;;;12.10;4.93;;;10.50;99.90;;;;;;5051513;28;20470;-70
2021/11/21 10:57:14;;;;;;;8.03;5.60;;;10.50;99.90;;;;;;5056532;28;20466;-69
2021/11/21 10:59:47;;;;;;;17.60;4.60;;;10.40;99.90;;;;;;5057657;28;20838;-70
2021/11/21 11:02:18;;;;;;;6.80;4.00;;;10.40;99.90;;;;;;5057039;28;20458;-69
2021/11/21 11:05:07;;;;;;;5.93;4.70;;;10.60;99.90;;;;;;5059118;28;20567;-68
2021/11/21 11:07:39;;;;;;;10.33;5.20;;;10.60;99.90;;;;;;5065457;28;20500;-68
2021/11/21 11:10:09;;;;;;;10.20;4.30;;;10.60;99.90;;;;;;5059092;28;20880;-67
2021/11/21 11:12:37;;;;;;;5.27;2.83;;;10.60;99.90;;;;;;5060772;28;20548;-71
2021/11/21 11:15:05;;;;;;;3.87;3.23;;;10.70;99.90;;;;;;5060975;28;20466;-70
2021/11/21 11:17:32;;;;;;;7.83;3.07;;;10.80;99.90;;;;;;5061416;28;20488;-72
2021/11/21 11:20:00;;;;;;;7.70;4.07;;;10.90;99.90;;;;;;5042403;28;20489;-67
2021/11/21 11:22:29;;;;;;;4.40;4.00;;;11.10;99.90;;;;;;5065780;28;20856;-69
2021/11/21 11:25:01;;;;;;;5.47;3.57;;;11.20;99.90;;;;;;5062159;28;21023;-70
2021/11/21 11:27:36;;;;;;;7.00;3.60;;;11.10;99.90;;;;;;5066055;28;20477;-68
2021/11/21 11:30:05;;;;;;;5.33;3.07;;;11.00;99.90;;;;;;5059844;28;20490;-70
2021/11/21 11:32:36;;;;;;;5.30;3.43;;;11.00;99.90;;;;;;5067046;28;20945;-71
2021/11/21 11:35:05;;;;;;;11.10;3.93;;;11.10;99.90;;;;;;5070939;28;20476;-70
2021/11/21 11:37:44;;;;;;;4.33;2.83;;;11.20;99.90;;;;;;5067669;28;20473;-71
2021/11/21 11:40:44;;;;;;;11.23;3.40;;;11.10;99.90;;;;;;5061834;28;20492;-70
2021/11/21 11:43:39;;;;;;;4.67;2.87;;;11.10;99.90;;;;;;5041870;28;20468;-68
2021/11/21 11:46:21;;;;;;;5.53;3.87;;;11.20;99.90;;;;;;5050683;28;20537;-71
2021/11/21 11:48:50;;;;;;;6.80;3.50;;;11.10;99.90;;;;;;5066370;28;20569;-69
2021/11/21 11:51:22;;;;;;;3.93;2.33;;;11.00;99.90;;;;;;5064015;28;21426;-69
2021/11/21 11:53:51;;;;;;;6.07;2.60;;;11.10;99.90;;;;;;5052314;28;20531;-70
2021/11/21 11:56:25;;;;;;;4.43;2.40;;;11.10;99.90;;;;;;5062892;28;20663;-67
2021/11/21 11:58:55;;;;;;;7.97;2.47;;;11.10;99.90;;;;;;5053655;28;20576;-68
2021/11/21 12:02:03;;;;;;;4.43;2.50;;;11.10;99.90;;;;;;5069190;28;20457;-68
2021/11/21 12:04:53;;;;;;;5.10;2.27;;;11.10;99.90;;;;;;5055441;28;20997;-68
2021/11/21 12:07:38;;;;;;;3.93;2.57;;;11.10;99.90;;;;;;5058062;28;20476;-68
2021/11/21 12:10:11;;;;;;;6.47;2.10;;;11.00;99.90;;;;;;5064888;28;21016;-70
2021/11/21 12:13:02;;;;;;;10.80;2.73;;;10.90;99.90;;;;;;5054632;28;20508;-69
2021/11/21 12:15:35;;;;;;;4.13;3.33;;;11.00;99.90;;;;;;5055201;28;20470;-71
2021/11/21 12:18:03;;;;;;;9.13;3.53;;;11.00;99.90;;;;;;5059235;28;20819;-71
2021/11/21 12:20:47;;;;;;;2.20;1.70;;;11.20;99.90;;;;;;5065982;28;20823;-69
2021/11/21 12:23:35;;;;;;;6.57;2.07;;;11.10;99.90;;;;;;5052862;28;20999;-71
2021/11/21 12:26:20;;;;;;;6.00;3.13;;;11.20;99.90;;;;;;5058866;28;20465;-71
2021/11/21 12:29:02;;;;;;;9.73;4.27;;;11.40;99.90;;;;;;5065019;28;21230;-71
2021/11/21 12:31:31;;;;;;;4.63;2.27;;;11.70;99.90;;;;;;5059495;28;20926;-68
2021/11/21 12:34:35;;;;;;;10.60;2.77;;;11.90;99.90;;;;;;5052926;28;20454;-70
2021/11/21 12:37:20;;;;;;;4.13;2.07;;;12.10;99.90;;;;;;5051794;28;21176;-71
2021/11/21 12:39:51;;;;;;;3.80;2.67;;;12.20;99.90;;;;;;5047306;28;20951;-70
2021/11/21 12:42:23;;;;;;;5.53;2.63;;;12.40;99.90;;;;;;5050015;28;20484;-69
2021/11/21 12:45:03;;;;;;;5.23;1.37;;;12.60;99.90;;;;;;5054565;28;20548;-69
2021/11/21 12:47:30;;;;;;;12.17;2.63;;;13.20;99.90;;;;;;5060365;28;20935;-66
2021/11/21 12:49:57;;;;;;;6.20;1.93;;;13.50;99.90;;;;;;5056457;28;20536;-67
2021/11/21 12:52:24;;;;;;;3.03;1.50;;;13.40;99.90;;;;;;5048389;28;20481;-68
2021/11/21 12:54:52;;;;;;;5.70;1.60;;;13.00;99.90;;;;;;5053063;28;20985;-68